createdAt,value
2023-01-03T00:01:20.418Z,3.17
2023-01-03T00:03:48.437Z,1.57
2023-01-03T00:06:29.874Z,1.53
2023-01-03T00:08:59.471Z,1.60
2023-01-03T00:11:47.829Z,2.13
2023-01-03T00:14:20.716Z,1.10
2023-01-03T00:16:51.250Z,1.63
2023-01-03T00:19:19.304Z,72.67
2023-01-03T00:21:47.292Z,15.80
2023-01-03T00:24:15.323Z,3.43
2023-01-03T00:26:43.354Z,2.53
2023-01-03T00:29:11.471Z,1.33
2023-01-03T00:31:39.668Z,1.73
2023-01-03T00:34:07.541Z,0.97
2023-01-03T00:36:35.752Z,2.20
2023-01-03T00:39:03.687Z,0.87
2023-01-03T00:41:31.846Z,0.70
2023-01-03T00:43:59.944Z,0.90
2023-01-03T00:46:27.923Z,0.70
2023-01-03T00:48:55.757Z,1.13
2023-01-03T00:51:25.377Z,0.77
2023-01-03T00:53:59.277Z,0.90
2023-01-03T00:56:30.143Z,0.60
2023-01-03T00:58:58.375Z,0.70
2023-01-03T01:01:27.454Z,1.40
2023-01-03T01:04:00.715Z,0.63
2023-01-03T01:06:33.356Z,0.93
2023-01-03T01:09:01.469Z,0.87
2023-01-03T01:11:29.504Z,0.73
2023-01-03T01:13:57.510Z,1.80
2023-01-03T01:16:27.742Z,2.10
2023-01-03T01:18:55.791Z,1.07
2023-01-03T01:21:26.226Z,0.60
2023-01-03T01:23:54.150Z,2.30
2023-01-03T01:26:25.828Z,1.40
2023-01-03T01:28:54.279Z,0.87
2023-01-03T01:31:23.585Z,1.27
2023-01-03T01:33:52.025Z,0.67
2023-01-03T01:36:21.790Z,0.93
2023-01-03T01:38:53.835Z,0.87
2023-01-03T01:41:41.728Z,0.67
2023-01-03T01:44:46.327Z,1.73
2023-01-03T01:47:37.998Z,1.90
2023-01-03T01:50:15.236Z,0.93
2023-01-03T01:52:51.918Z,1.20
2023-01-03T01:55:21.911Z,1.60
2023-01-03T01:57:49.783Z,0.77
2023-01-03T02:00:17.613Z,0.70
2023-01-03T02:02:46.402Z,0.97
2023-01-03T02:05:14.442Z,0.70
2023-01-03T02:07:42.311Z,0.60
2023-01-03T02:10:11.696Z,0.80
2023-01-03T02:13:08.442Z,1.20
2023-01-03T02:15:45.331Z,2.13
2023-01-03T02:18:48.445Z,1.80
2023-01-03T02:21:44.258Z,0.47
2023-01-03T02:24:33.836Z,1.53
2023-01-03T02:27:13.797Z,1.20
2023-01-03T02:30:00.181Z,0.73
2023-01-03T02:32:44.574Z,0.60
2023-01-03T02:35:22.539Z,0.87
2023-01-03T02:37:58.549Z,0.80
2023-01-03T02:40:32.185Z,1.03
2023-01-03T02:43:03.235Z,2.00
2023-01-03T02:45:40.786Z,1.13
2023-01-03T02:48:28.892Z,0.83
2023-01-03T02:50:58.680Z,0.60
2023-01-03T02:53:28.944Z,1.20
2023-01-03T02:55:57.759Z,1.20
2023-01-03T02:58:27.986Z,0.80
2023-01-03T03:00:57.166Z,0.77
2023-01-03T03:03:27.372Z,0.70
2023-01-03T03:06:33.647Z,1.00
2023-01-03T03:09:01.613Z,1.03
2023-01-03T03:11:48.858Z,0.50
2023-01-03T03:14:28.883Z,0.50
2023-01-03T03:16:57.205Z,0.50
2023-01-03T03:19:45.176Z,0.40
2023-01-03T03:22:46.896Z,0.60
2023-01-03T03:25:37.297Z,1.57
2023-01-03T03:28:26.576Z,0.53
2023-01-03T03:30:56.892Z,0.60
2023-01-03T03:33:25.281Z,0.73
2023-01-03T03:36:06.985Z,0.60
2023-01-03T03:38:42.868Z,0.83
2023-01-03T03:41:43.786Z,1.00
2023-01-03T04:00:59.281Z,1.17
2023-01-03T04:03:27.200Z,1.07
2023-01-03T04:05:59.716Z,1.73
2023-01-03T04:08:27.793Z,0.80
2023-01-03T04:11:06.644Z,1.73
2023-01-03T04:13:38.406Z,3.43
2023-01-03T04:16:06.732Z,2.17
2023-01-03T04:18:34.883Z,1.57
2023-01-03T04:21:02.845Z,0.97
2023-01-03T04:23:30.667Z,1.13
2023-01-03T04:25:58.590Z,2.17
2023-01-03T04:28:26.419Z,0.97
2023-01-03T04:30:54.373Z,0.90
2023-01-03T04:33:22.227Z,1.40
2023-01-03T04:35:50.173Z,0.70
2023-01-03T04:38:18.502Z,1.43
2023-01-03T04:40:46.435Z,1.10
2023-01-03T04:43:33.107Z,0.80
2023-01-03T04:46:01.264Z,2.63
2023-01-03T04:48:29.132Z,1.70
2023-01-03T04:50:58.223Z,1.57
2023-01-03T04:53:27.032Z,1.40
2023-01-03T04:55:58.076Z,2.53
2023-01-03T04:58:25.993Z,4.23
2023-01-03T05:00:53.839Z,1.20
2023-01-03T05:03:27.614Z,1.00
2023-01-03T05:06:00.165Z,1.40
2023-01-03T05:08:27.979Z,1.70
2023-01-03T05:10:55.862Z,5.50
2023-01-03T05:13:23.834Z,2.03
2023-01-03T05:15:56.482Z,2.83
2023-01-03T05:18:24.543Z,2.77
2023-01-03T05:21:11.094Z,2.33
2023-01-03T05:23:57.490Z,3.97
2023-01-03T05:26:25.373Z,1.93
2023-01-03T05:28:57.381Z,1.90
2023-01-03T05:31:25.282Z,3.83
2023-01-03T05:33:53.091Z,3.17
2023-01-03T05:36:20.907Z,2.30
2023-01-03T05:38:48.716Z,3.10
2023-01-03T05:41:36.455Z,3.07
2023-01-03T05:44:04.518Z,3.00
2023-01-03T05:46:32.499Z,2.10
2023-01-03T05:49:00.470Z,1.80
2023-01-03T05:51:28.280Z,2.67
2023-01-03T05:53:56.181Z,1.93
2023-01-03T05:56:24.043Z,2.23
2023-01-03T05:58:51.839Z,3.97
2023-01-03T06:01:19.959Z,3.30
2023-01-03T06:03:48.344Z,2.67
2023-01-03T06:06:16.491Z,2.50
2023-01-03T06:08:44.506Z,2.10
2023-01-03T06:11:13.939Z,1.90
2023-01-03T06:13:42.191Z,5.03
2023-01-03T06:16:30.173Z,2.30
2023-01-03T06:18:58.114Z,2.03
2023-01-03T06:21:26.080Z,3.13
2023-01-03T06:23:54.035Z,4.10
2023-01-03T06:26:22.901Z,3.37
2023-01-03T06:28:51.361Z,2.53
2023-01-03T06:31:19.594Z,2.50
2023-01-03T06:33:48.737Z,2.20
2023-01-03T06:36:18.465Z,2.80
2023-01-03T06:38:46.520Z,1.77
2023-01-03T06:41:14.463Z,1.60
2023-01-03T06:43:42.481Z,2.73
2023-01-03T06:46:29.975Z,2.13
2023-01-03T06:49:16.398Z,1.97
2023-01-03T06:52:02.649Z,2.20
2023-01-03T06:54:31.798Z,2.13
2023-01-03T06:56:59.944Z,2.60
2023-01-03T06:59:27.941Z,2.67
2023-01-03T07:01:56.315Z,3.00
2023-01-03T07:04:25.244Z,2.70
2023-01-03T07:06:53.100Z,2.97
2023-01-03T07:09:20.956Z,2.73
2023-01-03T07:11:49.350Z,3.27
2023-01-03T07:14:17.176Z,3.53
2023-01-03T07:16:48.928Z,2.73
2023-01-03T07:19:18.528Z,3.07
2023-01-03T07:21:46.373Z,2.20
2023-01-03T07:24:15.716Z,2.67
2023-01-03T07:26:43.516Z,3.57
2023-01-03T07:29:11.386Z,3.83
2023-01-03T07:31:42.502Z,3.00
2023-01-03T07:34:10.407Z,4.07
2023-01-03T07:36:38.241Z,3.37
2023-01-03T07:39:06.074Z,4.20
2023-01-03T07:41:52.316Z,2.93
2023-01-03T07:44:20.207Z,4.97
2023-01-03T07:46:48.015Z,3.93
2023-01-03T07:49:15.943Z,7.37
2023-01-03T07:51:43.870Z,2.93
2023-01-03T07:54:12.104Z,4.70
2023-01-03T07:56:40.061Z,3.23
2023-01-03T07:59:07.997Z,3.63
2023-01-03T08:01:36.036Z,3.17
2023-01-03T08:04:03.883Z,4.30
2023-01-03T08:06:31.666Z,3.77
2023-01-03T08:09:18.024Z,3.20
2023-01-03T08:12:04.398Z,3.43
2023-01-03T08:14:32.228Z,3.27
2023-01-03T08:17:00.019Z,3.17
2023-01-03T08:19:27.793Z,3.63
2023-01-03T08:21:55.587Z,2.80
2023-01-03T08:24:23.393Z,2.70
2023-01-03T08:26:51.211Z,2.90
2023-01-03T08:29:19.050Z,2.40
2023-01-03T08:31:55.133Z,3.40
2023-01-03T08:34:29.419Z,3.40
2023-01-03T08:37:03.279Z,2.67
2023-01-03T08:39:35.308Z,2.60
2023-01-03T08:42:04.577Z,2.60
2023-01-03T08:44:32.546Z,2.30
2023-01-03T08:47:04.201Z,5.17
2023-01-03T08:49:32.289Z,4.20
2023-01-03T08:52:02.448Z,5.90
2023-01-03T08:54:30.339Z,4.60
2023-01-03T08:56:58.280Z,3.80
2023-01-03T08:59:26.184Z,2.53
2023-01-03T09:01:58.782Z,3.40
2023-01-03T09:04:26.745Z,2.97
2023-01-03T09:06:54.721Z,2.50
2023-01-03T09:09:22.493Z,3.67
2023-01-03T09:11:50.370Z,3.60
2023-01-03T09:14:18.117Z,3.73
2023-01-03T09:16:49.230Z,2.87
2023-01-03T09:19:17.697Z,4.67
2023-01-03T09:21:45.474Z,4.53
2023-01-03T09:24:13.245Z,3.60
2023-01-03T09:26:45.999Z,3.33
2023-01-03T09:29:17.125Z,5.70
2023-01-03T09:31:45.998Z,3.27
2023-01-03T09:34:14.103Z,4.50
2023-01-03T09:36:41.957Z,3.40
2023-01-03T09:39:09.822Z,5.57
2023-01-03T09:41:37.685Z,3.97
2023-01-03T09:44:06.887Z,4.57
2023-01-03T09:46:34.859Z,4.63
2023-01-03T09:49:02.872Z,5.07
2023-01-03T09:51:51.278Z,5.80
2023-01-03T09:54:42.758Z,2.90
2023-01-03T09:57:36.330Z,5.87
2023-01-03T10:00:23.406Z,12.77
2023-01-03T10:03:25.349Z,6.57
2023-01-03T10:06:13.128Z,3.70
2023-01-03T10:08:59.667Z,3.13
2023-01-03T10:11:33.813Z,3.33
2023-01-03T10:14:33.886Z,3.97
2023-01-03T10:17:22.322Z,3.67
2023-01-03T10:20:08.988Z,2.63
2023-01-03T10:22:36.851Z,2.93
2023-01-03T10:25:22.741Z,2.83
2023-01-03T10:28:01.204Z,2.50
2023-01-03T10:30:43.944Z,3.00
2023-01-03T10:33:30.341Z,2.87
2023-01-03T10:35:58.562Z,2.77
2023-01-03T10:38:27.076Z,4.87
2023-01-03T10:41:01.827Z,2.70
2023-01-03T10:43:33.594Z,3.43
2023-01-03T10:46:06.429Z,4.03
2023-01-03T10:49:16.951Z,3.17
2023-01-03T10:51:41.906Z,4.63
2023-01-03T10:54:13.549Z,2.93
2023-01-03T10:56:41.373Z,3.03
2023-01-03T10:59:24.397Z,3.67
2023-01-03T11:02:10.884Z,2.40
2023-01-03T11:04:39.033Z,2.70
2023-01-03T11:07:09.938Z,3.27
2023-01-03T11:09:50.385Z,3.40
2023-01-03T11:12:24.576Z,3.53
2023-01-03T11:14:57.142Z,4.17
2023-01-03T11:17:26.317Z,3.50
2023-01-03T11:19:54.239Z,2.87
2023-01-03T11:22:38.697Z,3.40
2023-01-03T11:25:32.609Z,25.07
2023-01-03T11:28:38.065Z,6.47
2023-01-03T11:31:24.735Z,6.33
2023-01-03T11:34:03.084Z,4.43
2023-01-03T11:36:43.572Z,5.23
2023-01-03T11:39:27.240Z,4.27
2023-01-03T11:42:31.337Z,4.87
2023-01-03T11:45:27.000Z,4.20
2023-01-03T11:48:07.010Z,6.57
2023-01-03T11:50:40.921Z,5.67
2023-01-03T11:53:23.503Z,4.90
2023-01-03T11:56:19.461Z,6.03
2023-01-03T11:59:25.572Z,4.60
2023-01-03T12:02:30.706Z,4.70
2023-01-03T12:05:10.654Z,6.07
2023-01-03T12:07:50.326Z,5.63
2023-01-03T12:10:23.528Z,5.73
2023-01-03T12:12:57.204Z,6.30
2023-01-03T12:15:30.691Z,4.67
2023-01-03T12:18:11.016Z,4.90
2023-01-03T12:20:43.204Z,6.23
2023-01-03T12:23:28.428Z,4.90
2023-01-03T12:25:58.437Z,6.93
2023-01-03T12:28:45.152Z,19.17
2023-01-03T12:31:33.377Z,7.03
2023-01-03T12:34:04.727Z,6.43
2023-01-03T12:37:11.735Z,5.30
2023-01-03T12:39:51.192Z,5.83
2023-01-03T12:42:34.311Z,4.90
2023-01-03T12:45:05.713Z,5.10
2023-01-03T12:47:44.904Z,5.07
2023-01-03T12:50:32.409Z,4.73
2023-01-03T12:53:13.028Z,4.97
2023-01-03T12:55:56.105Z,5.50
2023-01-03T12:59:01.433Z,4.80
2023-01-03T13:01:41.866Z,4.83
2023-01-03T13:04:24.033Z,5.07
2023-01-03T13:07:19.567Z,3.70
2023-01-03T13:09:56.004Z,4.53
2023-01-03T13:12:33.341Z,16.83
2023-01-03T13:15:04.119Z,5.23
2023-01-03T13:17:33.327Z,4.07
2023-01-03T13:20:19.994Z,3.50
2023-01-03T13:23:01.056Z,4.13
2023-01-03T13:25:40.567Z,4.57
2023-01-03T13:28:35.538Z,4.60
2023-01-03T13:31:15.716Z,3.80
2023-01-03T13:33:50.013Z,3.60
2023-01-03T13:36:17.868Z,3.53
2023-01-03T13:38:45.733Z,3.93
2023-01-03T13:41:38.367Z,5.13
2023-01-03T13:44:23.318Z,3.73
2023-01-03T13:46:51.790Z,4.30
2023-01-03T13:49:21.803Z,4.60
2023-01-03T13:52:00.339Z,3.63
2023-01-03T13:54:37.454Z,3.73
2023-01-03T13:57:08.074Z,4.97
2023-01-03T13:59:43.791Z,3.50
2023-01-03T14:02:14.776Z,4.33
2023-01-03T14:04:48.825Z,5.97
2023-01-03T14:07:19.584Z,3.40
2023-01-03T14:10:08.226Z,3.30
2023-01-03T14:13:03.886Z,3.03
2023-01-03T14:15:32.507Z,4.07
2023-01-03T14:18:12.921Z,5.03
2023-01-03T14:20:40.789Z,4.27
2023-01-03T14:23:48.888Z,4.10
2023-01-03T14:26:20.869Z,3.37
2023-01-03T14:28:50.401Z,4.00
2023-01-03T14:31:26.411Z,3.43
2023-01-03T14:33:55.713Z,3.73
2023-01-03T14:36:23.599Z,3.77
2023-01-03T14:39:01.485Z,5.00
2023-01-03T14:41:37.174Z,6.03
2023-01-03T14:44:08.943Z,6.60
2023-01-03T14:46:37.177Z,4.80
2023-01-03T14:49:07.316Z,3.80
2023-01-03T14:51:36.084Z,4.50
2023-01-03T14:54:04.646Z,3.57
2023-01-03T14:56:32.423Z,4.00
2023-01-03T14:59:00.222Z,5.37
2023-01-03T15:01:29.777Z,5.97
2023-01-03T15:03:57.746Z,5.03
2023-01-03T15:06:27.905Z,5.17
2023-01-03T15:08:57.435Z,4.77
2023-01-03T15:11:25.155Z,3.43
2023-01-03T15:13:58.080Z,4.60
2023-01-03T15:16:39.811Z,3.77
2023-01-03T15:19:25.714Z,5.37
2023-01-03T15:21:56.286Z,5.37
2023-01-03T15:24:24.196Z,4.03
2023-01-03T15:26:53.273Z,5.03
2023-01-03T15:29:24.472Z,3.87
2023-01-03T15:31:58.037Z,8.43
2023-01-03T15:34:31.867Z,5.40
2023-01-03T15:37:04.379Z,6.53
2023-01-03T15:40:00.463Z,6.83
2023-01-03T15:42:51.844Z,7.27
2023-01-03T15:45:28.747Z,5.30
2023-01-03T15:48:09.834Z,7.20
2023-01-03T15:50:51.545Z,5.70
2023-01-03T15:53:33.408Z,4.93
2023-01-03T15:56:13.980Z,5.47
2023-01-03T15:58:43.648Z,4.30
2023-01-03T16:01:13.010Z,4.07
2023-01-03T16:03:52.967Z,4.13
2023-01-03T16:06:22.050Z,5.47
2023-01-03T16:08:51.910Z,4.70
2023-01-03T16:11:33.766Z,4.30
2023-01-03T16:14:09.730Z,4.27
2023-01-03T16:16:40.999Z,4.40
2023-01-03T16:19:09.178Z,6.07
2023-01-03T16:21:37.081Z,8.30
2023-01-03T16:24:08.490Z,6.57
2023-01-03T16:26:37.942Z,6.43
2023-01-03T16:29:05.733Z,5.20
2023-01-03T16:31:36.641Z,3.90
2023-01-03T16:34:05.418Z,5.53
2023-01-03T16:37:21.339Z,4.57
2023-01-03T16:39:49.595Z,4.73
2023-01-03T16:42:17.412Z,5.30
2023-01-03T16:44:46.699Z,7.67
2023-01-03T16:47:17.146Z,7.43
2023-01-03T16:49:45.280Z,7.53
2023-01-03T16:52:17.499Z,5.73
2023-01-03T16:54:45.394Z,5.70
2023-01-03T16:57:19.467Z,6.57
2023-01-03T16:59:48.095Z,6.17
2023-01-03T17:02:16.444Z,6.47
2023-01-03T17:04:44.455Z,5.43
2023-01-03T17:07:19.997Z,8.73
2023-01-03T17:09:48.981Z,7.47
2023-01-03T17:12:16.943Z,8.53
2023-01-03T17:14:44.949Z,5.30
2023-01-03T17:17:21.174Z,6.90
2023-01-03T17:20:06.128Z,9.50
2023-01-03T17:22:34.348Z,7.93
2023-01-03T17:25:02.265Z,8.87
2023-01-03T17:27:33.232Z,8.27
2023-01-03T17:30:03.507Z,8.07
2023-01-03T17:32:31.767Z,9.13
2023-01-03T17:34:59.700Z,10.47
2023-01-03T17:37:27.574Z,7.00
2023-01-03T17:39:57.433Z,5.70
2023-01-03T17:42:25.542Z,5.83
2023-01-03T17:45:11.817Z,5.63
2023-01-03T17:48:04.359Z,7.27
2023-01-03T17:50:32.351Z,6.23
2023-01-03T17:53:01.928Z,6.43
2023-01-03T17:55:30.360Z,7.50
2023-01-03T17:57:58.511Z,6.30
2023-01-03T18:00:27.462Z,5.90
2023-01-03T18:02:55.673Z,8.30
2023-01-03T18:05:28.028Z,8.93
2023-01-03T18:08:00.339Z,6.17
2023-01-03T18:10:43.793Z,8.43
2023-01-03T18:13:33.717Z,8.17
2023-01-03T18:16:01.680Z,7.30
2023-01-03T18:18:29.788Z,7.47
2023-01-03T18:20:57.977Z,6.83
2023-01-03T18:23:37.052Z,7.00
2023-01-03T18:26:06.914Z,6.77
2023-01-03T18:28:34.728Z,6.30
2023-01-03T18:31:02.611Z,7.77
2023-01-03T18:33:30.530Z,7.43
2023-01-03T18:35:58.341Z,6.53
2023-01-03T18:38:36.725Z,6.77
2023-01-03T18:41:06.089Z,8.03
2023-01-03T18:43:34.283Z,9.57
2023-01-03T18:46:02.312Z,11.70
2023-01-03T18:48:30.166Z,16.80
2023-01-03T18:50:59.744Z,19.53
2023-01-03T18:53:29.701Z,20.83
2023-01-03T18:55:57.539Z,22.17
2023-01-03T18:58:33.087Z,30.03
2023-01-03T19:01:01.039Z,46.33
2023-01-03T19:03:30.249Z,27.73
2023-01-03T19:05:59.218Z,29.63
2023-01-03T19:08:27.804Z,90.80
2023-01-03T19:10:55.694Z,69.60
2023-01-03T19:13:29.160Z,40.57
2023-01-03T19:15:57.084Z,33.40
2023-01-03T19:18:24.985Z,35.57
2023-01-03T19:20:52.797Z,40.37
2023-01-03T19:23:23.983Z,24.03
2023-01-03T19:25:51.956Z,31.37
2023-01-03T19:28:23.286Z,53.70
2023-01-03T19:30:51.388Z,21.73
2023-01-03T19:33:20.664Z,51.50
2023-01-03T19:35:49.339Z,29.30
2023-01-03T19:38:17.127Z,28.93
2023-01-03T19:40:46.209Z,17.40
2023-01-03T19:43:22.234Z,16.60
2023-01-03T19:45:50.086Z,21.90
2023-01-03T19:48:22.568Z,20.50
2023-01-03T19:50:51.053Z,48.67
2023-01-03T19:53:19.033Z,16.10
2023-01-03T19:55:50.430Z,34.27
2023-01-03T19:58:25.354Z,27.17
2023-01-03T20:00:53.394Z,19.30
2023-01-03T20:03:31.010Z,42.90
2023-01-03T20:05:59.786Z,28.37
2023-01-03T20:08:27.649Z,26.40
2023-01-03T20:10:55.643Z,17.97
2023-01-03T20:13:25.401Z,20.40
2023-01-03T20:15:55.383Z,21.00
2023-01-03T20:18:34.503Z,22.70
2023-01-03T20:21:30.064Z,18.13
2023-01-03T20:24:00.593Z,16.97
2023-01-03T20:26:32.724Z,16.50
2023-01-03T20:29:01.034Z,16.77
2023-01-03T20:31:29.164Z,16.73
2023-01-03T20:33:57.069Z,18.60
2023-01-03T20:36:26.524Z,17.00
2023-01-03T20:38:55.127Z,19.33
2023-01-03T20:41:23.108Z,19.23
2023-01-03T20:43:51.254Z,21.63
2023-01-03T20:46:21.112Z,22.10
2023-01-03T20:49:13.654Z,20.57
2023-01-03T20:51:41.497Z,21.67
2023-01-03T20:54:10.360Z,20.30
2023-01-03T20:56:38.160Z,19.23
2023-01-03T20:59:06.332Z,26.67
2023-01-03T21:01:34.483Z,25.60
2023-01-03T21:04:02.454Z,23.60
2023-01-03T21:06:31.187Z,22.27
2023-01-03T21:08:59.248Z,19.60
2023-01-03T21:11:32.158Z,20.07
2023-01-03T21:14:01.416Z,20.80
2023-01-03T21:16:45.522Z,23.20
2023-01-03T21:19:17.828Z,22.27
2023-01-03T21:21:47.224Z,22.13
2023-01-03T21:24:15.955Z,21.57
2023-01-03T21:26:43.849Z,21.27
2023-01-03T21:29:11.745Z,23.10
2023-01-03T21:31:40.086Z,24.97
2023-01-03T21:34:08.503Z,26.33
2023-01-03T21:36:36.763Z,25.30
2023-01-03T21:39:05.023Z,31.42
2023-01-03T21:41:35.006Z,25.50
2023-01-03T21:44:09.040Z,31.00
2023-01-03T21:46:36.919Z,38.00
2023-01-03T21:49:04.936Z,56.47
2023-01-03T21:51:38.810Z,99.93
2023-01-03T21:54:08.540Z,63.63
2023-01-03T21:56:46.633Z,85.00
2023-01-03T21:59:16.035Z,90.43
2023-01-03T22:02:03.907Z,39.80
2023-01-03T22:04:32.336Z,154.57
2023-01-03T22:07:02.098Z,82.50
2023-01-03T22:09:49.640Z,40.07
2023-01-03T22:12:18.221Z,123.67
2023-01-03T22:14:47.022Z,74.73
2023-01-03T22:17:15.189Z,123.05
2023-01-03T22:19:43.144Z,72.60
2023-01-03T22:22:11.192Z,61.93
2023-01-03T22:24:39.168Z,48.50
2023-01-03T22:27:07.185Z,28.50
2023-01-03T22:29:35.359Z,40.30
2023-01-03T22:32:03.350Z,38.63
2023-01-03T22:34:31.441Z,38.83
2023-01-03T22:36:59.277Z,69.43
2023-01-03T22:39:27.055Z,33.57
2023-01-03T22:41:55.013Z,33.73
2023-01-03T22:44:23.056Z,18.90
2023-01-03T22:46:51.538Z,20.87
2023-01-03T22:49:19.883Z,15.60
2023-01-03T22:51:47.802Z,13.73
2023-01-03T22:54:16.088Z,13.57
2023-01-03T22:56:44.046Z,13.03
2023-01-03T22:59:11.902Z,14.37
2023-01-03T23:01:40.177Z,16.03
2023-01-03T23:04:10.960Z,22.27
2023-01-03T23:06:40.453Z,16.10
2023-01-03T23:09:08.912Z,17.47
2023-01-03T23:11:55.200Z,26.90
2023-01-03T23:14:23.803Z,36.77
2023-01-03T23:16:56.998Z,28.47
2023-01-03T23:19:27.519Z,16.17
2023-01-03T23:21:55.677Z,14.50
2023-01-03T23:24:25.638Z,17.73
2023-01-03T23:26:55.973Z,17.20
2023-01-03T23:29:24.781Z,15.93
2023-01-03T23:31:54.488Z,17.03
2023-01-03T23:34:23.094Z,17.83
2023-01-03T23:36:51.310Z,23.37
2023-01-03T23:39:20.678Z,19.30
2023-01-03T23:41:49.107Z,21.07
2023-01-03T23:44:17.114Z,17.87
2023-01-03T23:46:45.146Z,18.90
2023-01-03T23:49:13.927Z,23.20
2023-01-03T23:51:41.897Z,22.03
2023-01-03T23:54:10.152Z,19.10
2023-01-03T23:56:38.127Z,20.70
2023-01-03T23:59:06.101Z,22.23
